createdAt,value
2023-05-23T00:00:14.267Z,99.30
2023-05-23T00:03:02.728Z,103.93
2023-05-23T00:09:08.949Z,106.07
2023-05-23T00:15:13.502Z,106.15
2023-05-23T00:18:00.374Z,116.07
2023-05-23T00:20:46.985Z,118.55
2023-05-23T00:23:33.867Z,122.57
2023-05-23T00:26:29.911Z,105.82
2023-05-23T00:29:22.478Z,129.25
2023-05-23T00:32:17.069Z,134.75
2023-05-23T00:35:10.407Z,89.15
2023-05-23T00:38:03.330Z,102.43
2023-05-23T00:40:55.856Z,115.80
2023-05-23T00:43:48.659Z,135.80
2023-05-23T00:46:42.680Z,150.35
2023-05-23T00:49:37.266Z,111.93
2023-05-23T00:52:29.323Z,131.02
2023-05-23T00:55:21.681Z,128.55
2023-05-23T00:58:15.207Z,132.70
2023-05-23T01:01:09.483Z,123.30
2023-05-23T01:04:04.336Z,119.80
2023-05-23T01:10:10.208Z,126.10
2023-05-23T01:16:34.224Z,137.70
2023-05-23T01:19:44.633Z,137.95
2023-05-23T01:22:45.823Z,106.72
2023-05-23T01:29:10.202Z,96.68
2023-05-23T01:32:03.707Z,114.35
2023-05-23T01:34:56.761Z,108.28
2023-05-23T01:37:49.710Z,99.00
2023-05-23T01:40:42.354Z,102.80
2023-05-23T01:49:46.254Z,92.97
2023-05-23T01:52:34.940Z,98.65
2023-05-23T01:55:27.828Z,105.43
2023-05-23T01:58:21.124Z,110.10
2023-05-23T02:01:13.770Z,98.63
2023-05-23T02:04:01.589Z,103.95
2023-05-23T02:06:54.535Z,90.63
2023-05-23T02:09:47.505Z,80.13
2023-05-23T02:12:40.910Z,74.90
2023-05-23T02:18:46.903Z,61.53
2023-05-23T02:21:41.187Z,59.05
2023-05-23T02:27:49.988Z,58.70
2023-05-23T02:33:58.986Z,56.28
2023-05-23T02:36:52.966Z,47.85
2023-05-23T02:39:45.799Z,52.60
2023-05-23T02:42:39.728Z,54.75
2023-05-23T02:45:32.420Z,56.40
2023-05-23T02:48:41.663Z,57.50
2023-05-23T02:51:32.660Z,65.03
2023-05-23T02:58:13.082Z,67.90
2023-05-23T03:01:34.009Z,67.78
2023-05-23T03:04:27.604Z,70.18
2023-05-23T03:10:32.959Z,65.40
2023-05-23T03:13:26.669Z,58.47
2023-05-23T03:16:19.478Z,61.00
2023-05-23T03:19:11.719Z,61.03
2023-05-23T03:22:04.614Z,59.75
2023-05-23T03:24:57.732Z,54.70
2023-05-23T03:31:13.093Z,52.67
2023-05-23T03:34:06.200Z,47.83
2023-05-23T03:36:58.816Z,47.22
2023-05-23T03:39:52.340Z,44.33
2023-05-23T03:42:44.461Z,48.50
2023-05-23T03:45:37.378Z,50.45
2023-05-23T03:48:38.836Z,51.22
2023-05-23T03:51:32.679Z,54.40
2023-05-23T03:54:25.793Z,52.65
2023-05-23T03:57:18.835Z,57.05
2023-05-23T04:03:26.088Z,66.68
2023-05-23T04:06:22.705Z,71.97
2023-05-23T04:09:15.564Z,66.00
2023-05-23T04:12:11.864Z,72.80
2023-05-23T04:15:05.072Z,76.28
2023-05-23T04:21:12.174Z,64.75
2023-05-23T04:27:17.338Z,52.05
2023-05-23T04:30:12.164Z,56.20
2023-05-23T04:33:13.992Z,48.75
2023-05-23T04:36:09.132Z,54.25
2023-05-23T04:39:05.084Z,50.03
2023-05-23T04:42:29.198Z,47.70
2023-05-23T04:45:28.532Z,43.20
2023-05-23T04:48:27.985Z,44.20
2023-05-23T04:51:22.537Z,43.05
2023-05-23T04:54:20.907Z,43.28
2023-05-23T04:57:13.836Z,48.35
2023-05-23T05:00:10.321Z,42.92
2023-05-23T05:03:03.683Z,47.63
2023-05-23T05:09:12.996Z,43.55
2023-05-23T05:15:21.350Z,47.20
2023-05-23T05:18:18.786Z,41.00
2023-05-23T05:21:12.781Z,47.63
2023-05-23T05:24:09.524Z,43.10
2023-05-23T05:27:02.694Z,43.30
2023-05-23T05:29:58.327Z,35.03
2023-05-23T05:32:52.883Z,45.78
2023-05-23T05:35:45.908Z,36.85
2023-05-23T05:38:56.079Z,42.38
2023-05-23T05:41:45.903Z,38.97
2023-05-23T05:48:02.159Z,37.63
2023-05-23T05:54:02.520Z,28.63
2023-05-23T06:00:15.130Z,29.13
2023-05-23T06:03:21.377Z,34.55
2023-05-23T06:06:19.968Z,34.60
2023-05-23T06:09:13.658Z,29.48
2023-05-23T06:12:07.495Z,28.98
2023-05-23T06:14:59.586Z,25.88
2023-05-23T06:17:52.907Z,28.30
2023-05-23T06:24:00.330Z,27.52
2023-05-23T06:26:52.626Z,22.20
2023-05-23T06:29:45.870Z,27.25
2023-05-23T06:32:38.940Z,25.17
2023-05-23T06:35:32.104Z,19.65
2023-05-23T06:38:27.790Z,19.73
2023-05-23T06:41:22.569Z,25.65
2023-05-23T06:44:17.941Z,22.95
2023-05-23T06:47:10.325Z,16.52
2023-05-23T06:50:03.825Z,22.85
2023-05-23T06:52:58.553Z,17.43
2023-05-23T06:59:28.848Z,16.55
2023-05-23T07:02:58.949Z,13.45
2023-05-23T07:05:52.198Z,15.23
2023-05-23T07:11:54.361Z,17.85
2023-05-23T07:18:36.887Z,18.10
2023-05-23T07:21:43.833Z,15.90
2023-05-23T07:24:38.738Z,18.13
2023-05-23T07:27:32.788Z,16.98
2023-05-23T07:30:21.336Z,13.18
2023-05-23T07:33:14.365Z,17.30
2023-05-23T07:36:10.052Z,14.32
2023-05-23T07:39:02.619Z,12.68
2023-05-23T07:41:55.316Z,15.95
2023-05-23T07:44:48.463Z,14.07
2023-05-23T07:47:42.444Z,10.50
2023-05-23T07:50:35.743Z,10.43
2023-05-23T07:53:29.859Z,7.72
2023-05-23T07:56:24.034Z,8.77
2023-05-23T07:59:16.714Z,9.18
2023-05-23T08:02:10.826Z,7.57
2023-05-23T08:08:25.543Z,6.88
2023-05-23T08:14:50.607Z,6.68
2023-05-23T08:17:49.868Z,5.60
2023-05-23T08:24:05.048Z,15.00
2023-05-23T08:26:58.675Z,3.20
2023-05-23T08:33:07.154Z,4.22
2023-05-23T08:39:14.238Z,4.10
2023-05-23T08:42:14.542Z,4.20
2023-05-23T08:45:08.825Z,2.10
2023-05-23T08:48:02.638Z,2.58
2023-05-23T08:50:59.403Z,4.72
2023-05-23T08:53:53.581Z,5.53
2023-05-23T08:56:49.087Z,5.10
2023-05-23T08:59:42.223Z,4.45
2023-05-23T09:02:34.733Z,2.88
2023-05-23T09:05:39.948Z,3.50
2023-05-23T09:08:35.000Z,3.85
2023-05-23T09:11:24.188Z,2.92
2023-05-23T09:14:17.981Z,4.30
2023-05-23T09:17:11.480Z,3.20
2023-05-23T09:23:23.700Z,3.20
2023-05-23T09:26:17.889Z,5.75
2023-05-23T09:29:10.764Z,4.75
2023-05-23T09:35:16.487Z,5.30
2023-05-23T09:41:26.523Z,6.57
2023-05-23T09:44:24.440Z,9.10
2023-05-23T09:47:17.186Z,10.65
2023-05-23T09:50:10.184Z,8.15
2023-05-23T09:53:02.631Z,9.77
2023-05-23T09:55:57.129Z,11.10
2023-05-23T09:58:51.816Z,12.05
2023-05-23T10:01:46.046Z,19.23
2023-05-23T10:04:41.212Z,10.35
2023-05-23T10:07:34.328Z,9.67
2023-05-23T10:13:42.093Z,14.68
2023-05-23T10:19:38.516Z,13.65
2023-05-23T10:25:43.107Z,11.70
2023-05-23T10:28:35.962Z,10.73
2023-05-23T10:31:22.386Z,15.35
2023-05-23T10:34:16.559Z,12.23
2023-05-23T10:37:04.514Z,18.40
2023-05-23T10:39:58.553Z,12.85
2023-05-23T10:42:50.907Z,11.63
2023-05-23T10:45:43.187Z,11.25
2023-05-23T10:52:09.006Z,10.88
2023-05-23T10:58:13.619Z,12.68
2023-05-23T11:01:02.129Z,15.93
2023-05-23T11:07:33.373Z,13.50
2023-05-23T11:10:25.576Z,10.60
2023-05-23T11:13:21.356Z,11.07
2023-05-23T11:16:26.521Z,15.00
2023-05-23T11:19:27.841Z,12.82
2023-05-23T11:22:21.402Z,10.40
2023-05-23T11:25:16.728Z,13.63
2023-05-23T11:28:10.064Z,8.77
2023-05-23T11:31:02.748Z,9.27
2023-05-23T11:34:11.803Z,11.52
2023-05-23T11:37:02.639Z,14.35
2023-05-23T11:43:22.008Z,10.45
2023-05-23T11:49:19.574Z,12.02
2023-05-23T11:55:30.773Z,18.10
2023-05-23T11:58:27.695Z,11.30
2023-05-23T12:01:21.182Z,10.13
2023-05-23T12:04:13.947Z,8.88
2023-05-23T12:07:08.160Z,13.45
2023-05-23T12:10:00.551Z,9.95
2023-05-23T12:12:54.068Z,13.88
2023-05-23T12:16:23.992Z,19.70
2023-05-23T12:19:18.854Z,22.38
2023-05-23T12:22:11.888Z,17.27
2023-05-23T12:28:16.214Z,17.15
2023-05-23T12:34:13.851Z,14.35
2023-05-23T12:40:21.072Z,20.17
2023-05-23T12:46:27.842Z,11.43
2023-05-23T12:49:21.739Z,11.90
2023-05-23T12:52:14.775Z,14.02
2023-05-23T12:55:08.634Z,14.48
2023-05-23T13:01:19.511Z,12.27
2023-05-23T13:07:25.139Z,14.93
2023-05-23T13:10:17.703Z,9.68
2023-05-23T13:13:10.940Z,12.05
2023-05-23T13:16:03.678Z,14.40
2023-05-23T13:18:58.362Z,15.88
2023-05-23T13:21:51.580Z,14.10
2023-05-23T13:24:45.024Z,11.57
2023-05-23T13:27:39.588Z,12.77
2023-05-23T13:30:32.763Z,8.00
2023-05-23T13:33:25.883Z,9.85
2023-05-23T13:36:20.303Z,11.43
2023-05-23T13:39:13.062Z,16.80
2023-05-23T13:42:07.772Z,16.70
2023-05-23T13:45:00.892Z,16.00
2023-05-23T13:47:53.864Z,12.05
2023-05-23T13:50:47.489Z,13.57
2023-05-23T13:53:41.171Z,17.85
2023-05-23T13:56:34.414Z,10.63
2023-05-23T13:59:40.769Z,15.55
2023-05-23T14:02:33.716Z,10.70
2023-05-23T14:08:49.249Z,9.50
2023-05-23T14:11:41.673Z,17.23
2023-05-23T14:14:34.834Z,14.23
2023-05-23T14:17:27.773Z,12.68
2023-05-23T14:20:45.972Z,12.20
2023-05-23T14:23:38.489Z,14.23
2023-05-23T14:26:31.777Z,14.43
2023-05-23T14:29:48.872Z,11.20
2023-05-23T14:32:38.973Z,18.65
2023-05-23T14:35:31.676Z,12.10
2023-05-23T14:38:25.025Z,12.05
2023-05-23T14:41:18.596Z,10.80
2023-05-23T14:44:13.155Z,9.63
2023-05-23T14:47:06.099Z,11.43
2023-05-23T14:49:58.726Z,12.70
2023-05-23T14:52:51.655Z,16.50
2023-05-23T14:55:44.903Z,11.68
2023-05-23T14:58:40.114Z,12.75
2023-05-23T15:01:34.371Z,11.57
2023-05-23T15:04:27.784Z,12.80
2023-05-23T15:07:20.581Z,15.45
2023-05-23T15:10:13.967Z,7.95
2023-05-23T15:13:06.756Z,14.50
2023-05-23T15:15:59.523Z,15.80
2023-05-23T15:18:53.131Z,8.93
2023-05-23T15:21:51.120Z,15.43
2023-05-23T15:24:44.917Z,12.18
2023-05-23T15:27:38.219Z,12.13
2023-05-23T15:30:30.761Z,10.70
2023-05-23T15:33:24.187Z,9.93
2023-05-23T15:39:30.435Z,14.52
2023-05-23T15:45:39.116Z,9.55
2023-05-23T15:51:48.800Z,13.45
2023-05-23T15:54:42.979Z,14.68
2023-05-23T15:57:32.044Z,11.23
2023-05-23T16:00:25.127Z,10.25
2023-05-23T16:03:17.917Z,8.57
2023-05-23T16:06:10.984Z,16.40
2023-05-23T16:09:04.289Z,13.77
2023-05-23T16:11:58.100Z,9.23
2023-05-23T16:18:26.773Z,13.23
2023-05-23T16:21:37.111Z,10.10
2023-05-23T16:24:28.076Z,14.07
2023-05-23T16:31:08.062Z,10.63
2023-05-23T16:34:16.156Z,14.85
2023-05-23T16:37:07.868Z,10.15
2023-05-23T16:43:47.002Z,13.85
2023-05-23T16:46:57.111Z,7.45
2023-05-23T16:49:48.460Z,13.95
2023-05-23T16:56:01.936Z,10.40
2023-05-23T17:02:01.679Z,11.90
2023-05-23T17:08:12.422Z,15.10
2023-05-23T17:14:17.394Z,10.73
2023-05-23T17:17:09.617Z,19.42
2023-05-23T17:19:56.284Z,14.80
2023-05-23T17:22:49.164Z,11.75
2023-05-23T17:25:43.667Z,10.52
2023-05-23T17:28:36.777Z,10.97
2023-05-23T17:31:30.804Z,11.23
2023-05-23T17:34:24.121Z,11.38
2023-05-23T17:40:47.192Z,12.70
2023-05-23T17:44:17.024Z,9.68
2023-05-23T17:47:09.520Z,7.13
2023-05-23T17:50:19.107Z,12.80
2023-05-23T17:53:09.096Z,12.63
2023-05-23T17:59:28.426Z,12.77
2023-05-23T18:05:29.592Z,11.63
2023-05-23T18:11:38.429Z,19.10
2023-05-23T18:17:44.671Z,11.70
2023-05-23T18:20:37.788Z,8.38
2023-05-23T18:23:30.664Z,12.52
2023-05-23T18:26:23.817Z,11.80
2023-05-23T18:29:16.910Z,13.95
2023-05-23T18:32:11.848Z,10.20
2023-05-23T18:35:06.712Z,12.45
2023-05-23T18:38:00.030Z,9.25
2023-05-23T18:40:53.132Z,12.43
2023-05-23T18:43:39.866Z,8.95
2023-05-23T18:46:32.855Z,13.10
2023-05-23T18:49:26.266Z,17.33
2023-05-23T18:52:20.061Z,9.38
2023-05-23T18:55:12.904Z,19.92
2023-05-23T18:58:08.532Z,13.20
2023-05-23T19:01:03.522Z,8.68
2023-05-23T19:03:56.906Z,14.23
2023-05-23T19:06:51.204Z,16.77
2023-05-23T19:09:46.095Z,13.77
2023-05-23T19:12:39.730Z,11.73
2023-05-23T19:15:32.870Z,8.75
2023-05-23T19:21:46.696Z,10.40
2023-05-23T19:28:06.044Z,18.60
2023-05-23T19:30:58.635Z,7.70
2023-05-23T19:33:52.072Z,13.48
2023-05-23T19:36:44.717Z,6.57
2023-05-23T19:42:54.300Z,9.50
2023-05-23T19:45:48.337Z,9.00
2023-05-23T19:48:40.683Z,11.90
2023-05-23T19:51:35.738Z,10.27
2023-05-23T19:54:29.974Z,16.23
2023-05-23T19:57:23.007Z,13.35
2023-05-23T20:03:35.165Z,12.13
2023-05-23T20:09:40.082Z,16.08
2023-05-23T20:12:32.949Z,10.13
2023-05-23T20:15:39.957Z,16.83
2023-05-23T20:18:34.929Z,14.18
2023-05-23T20:21:27.891Z,12.70
2023-05-23T20:24:20.983Z,8.45
2023-05-23T20:27:13.666Z,11.07
2023-05-23T20:30:08.058Z,10.45
2023-05-23T20:33:00.991Z,13.80
2023-05-23T20:36:06.847Z,13.20
2023-05-23T20:39:00.142Z,13.20
2023-05-23T20:41:53.584Z,11.57
2023-05-23T20:47:53.749Z,11.55
2023-05-23T20:50:47.509Z,20.40
2023-05-23T20:53:41.556Z,17.38
2023-05-23T20:57:11.017Z,11.85
2023-05-23T21:00:09.530Z,12.35
2023-05-23T21:03:18.874Z,12.30
2023-05-23T21:06:09.423Z,14.52
2023-05-23T21:09:02.974Z,9.85
2023-05-23T21:11:57.316Z,21.45
2023-05-23T21:14:57.374Z,10.82
2023-05-23T21:17:51.083Z,12.57
2023-05-23T21:21:01.126Z,11.73
2023-05-23T21:23:50.769Z,8.57
2023-05-23T21:26:45.419Z,12.82
2023-05-23T21:29:38.018Z,13.27
2023-05-23T21:32:30.667Z,17.00
2023-05-23T21:35:23.892Z,15.05
2023-05-23T21:38:16.936Z,15.57
2023-05-23T21:41:09.728Z,10.85
2023-05-23T21:44:09.288Z,13.05
2023-05-23T21:47:02.065Z,12.10
2023-05-23T21:49:54.857Z,13.00
2023-05-23T21:52:48.006Z,8.80
2023-05-23T21:55:40.931Z,19.08
2023-05-23T21:58:33.973Z,16.20
2023-05-23T22:01:28.070Z,13.85
2023-05-23T22:04:58.011Z,17.02
2023-05-23T22:07:50.468Z,10.30
2023-05-23T22:10:44.031Z,11.73
2023-05-23T22:13:36.831Z,9.38
2023-05-23T22:16:32.866Z,8.40
2023-05-23T22:19:26.046Z,7.07
2023-05-23T22:22:18.744Z,12.63
2023-05-23T22:25:11.611Z,15.45
2023-05-23T22:28:03.404Z,13.32
2023-05-23T22:30:56.381Z,16.88
2023-05-23T22:33:50.173Z,21.15
2023-05-23T22:36:42.888Z,12.70
2023-05-23T22:39:35.664Z,18.65
2023-05-23T22:45:45.132Z,12.85
2023-05-23T22:48:38.999Z,16.23
2023-05-23T22:51:34.311Z,14.23
2023-05-23T22:54:26.711Z,15.38
2023-05-23T22:57:20.081Z,13.90
2023-05-23T23:00:13.981Z,16.48
2023-05-23T23:06:23.086Z,7.07
2023-05-23T23:12:25.122Z,12.77
2023-05-23T23:15:18.120Z,11.80
2023-05-23T23:21:28.150Z,16.25
2023-05-23T23:27:38.529Z,14.55
2023-05-23T23:30:30.488Z,10.38
2023-05-23T23:33:22.929Z,15.40
2023-05-23T23:36:09.781Z,18.92
2023-05-23T23:38:55.881Z,9.35
2023-05-23T23:41:41.850Z,16.02
2023-05-23T23:44:29.525Z,15.23
2023-05-23T23:47:15.816Z,15.45
2023-05-23T23:50:06.686Z,19.90
2023-05-23T23:52:53.215Z,17.55
2023-05-23T23:55:39.023Z,17.33
2023-05-23T23:58:25.072Z,17.60
